Terminal Aerodrome Forecast
Issued by NWS

Home | Current Version | Previous Version | Text Only | Print | Product List | Glossary Off
Versions: 1 2 3 4 5 6 7 8 9 10 11 12 13 14 15 16 17 18 19

000
FTUS43 KMPX 231533 CCA
TAFRWF
TAF COR
KRWF 231533Z 2316/2412 11010KT 6SM -RA BR VCTS SCT004 SCT018
      OVC035CB
      TEMPO 2316/2318 3SM TSRA SCT004 BKN018 OVC020CB
     FM231800 16012G18KT P6SM BKN020 BKN110
     FM232200 18016G22KT P6SM VCSH BKN050
      TEMPO 2323/2401 1SM TSRA BKN025CB
     FM240130 22011KT P6SM SCT040 BKN070
     FM240700 17008KT P6SM SKC=

USA.gov is the U.S. government's official web portal to all federal, state and local government web resources and services.